Time,TemperatureF,DewpointF,PressureIn,WindDirection,WindDirectionDegrees,WindSpeedMPH,WindSpeedGustMPH,Humidity,HourlyPrecipIn,Conditions,Clouds,dailyrainin,SoftwareType,DateUTC
2013-04-13 00:01:00,74.4,72.0,29.91,SW,218,1.0,3.0,93,0.00,,,0.00,weatherlink.com 1.10,2013-04-13 04:01:00,
2013-04-13 00:17:00,74.8,73.0,29.91,SW,236,3.0,6.0,93,0.00,,,0.00,weatherlink.com 1.10,2013-04-13 04:17:00,
2013-04-13 00:32:00,74.6,72.0,29.89,SSW,196,5.0,7.0,91,0.00,,,0.00,weatherlink.com 1.10,2013-04-13 04:32:00,
2013-04-13 00:47:00,74.3,71.0,29.87,South,176,2.0,6.0,90,0.00,,,0.00,weatherlink.com 1.10,2013-04-13 04:47:00,
2013-04-13 01:02:00,73.6,71.0,29.89,SSW,208,1.0,3.0,90,0.00,,,0.00,weatherlink.com 1.10,2013-04-13 05:02:00,
2013-04-13 01:17:00,73.5,70.0,29.90,NNW,335,5.0,7.0,89,0.00,,,0.00,weatherlink.com 1.10,2013-04-13 05:17:00,
2013-04-13 01:32:00,72.9,71.0,29.89,North,360,7.0,11.0,93,0.00,,,0.00,weatherlink.com 1.10,2013-04-13 05:32:00,
2013-04-13 02:02:00,72.6,70.0,29.90,North,355,5.0,8.0,92,0.00,,,0.00,weatherlink.com 1.10,2013-04-13 06:02:00,
2013-04-13 02:17:00,72.8,71.0,29.89,NNE,24,6.0,7.0,93,0.00,,,0.00,weatherlink.com 1.10,2013-04-13 06:17:00,
2013-04-13 03:02:00,71.4,69.0,29.89,North,5,2.0,10.0,93,0.00,,,0.00,weatherlink.com 1.10,2013-04-13 07:02:00,
2013-04-13 03:17:00,71.0,69.0,29.89,NNW,343,6.0,6.0,93,0.00,,,0.00,weatherlink.com 1.10,2013-04-13 07:17:00,
2013-04-13 03:32:00,70.7,69.0,29.89,North,351,3.0,7.0,93,0.00,,,0.00,weatherlink.com 1.10,2013-04-13 07:32:00,
2013-04-13 03:47:00,71.0,69.0,29.88,East,92,3.0,3.0,93,0.00,,,0.00,weatherlink.com 1.10,2013-04-13 07:47:00,
2013-04-13 04:02:00,70.5,68.0,29.89,East,80,2.0,3.0,93,0.00,,,0.00,weatherlink.com 1.10,2013-04-13 08:02:00,
2013-04-13 04:17:00,70.3,68.0,29.90,ENE,76,3.0,4.0,93,0.00,,,0.00,weatherlink.com 1.10,2013-04-13 08:17:00,
2013-04-13 04:32:00,70.5,68.0,29.90,North,355,3.0,5.0,93,0.00,,,0.00,weatherlink.com 1.10,2013-04-13 08:32:00,
2013-04-13 04:47:00,70.5,68.0,29.89,NNW,345,3.0,4.0,92,0.00,,,0.00,weatherlink.com 1.10,2013-04-13 08:47:00,
2013-04-13 05:02:00,71.0,69.0,29.89,ENE,69,0.0,4.0,94,0.00,,,0.00,weatherlink.com 1.10,2013-04-13 09:02:00,
2013-04-13 05:17:00,70.2,69.0,29.89,ENE,69,2.0,2.0,94,0.00,,,0.00,weatherlink.com 1.10,2013-04-13 09:17:00,
2013-04-13 05:47:00,70.2,68.0,29.88,ENE,69,0.0,0.0,93,0.00,,,0.00,weatherlink.com 1.10,2013-04-13 09:47:00,
2013-04-13 06:02:00,70.1,68.0,29.89,ENE,69,0.0,1.0,93,0.00,,,0.00,weatherlink.com 1.10,2013-04-13 10:02:00,
2013-04-13 06:17:00,70.3,69.0,29.89,ENE,69,0.0,1.0,94,0.00,,,0.00,weatherlink.com 1.10,2013-04-13 10:17:00,
2013-04-13 06:32:00,70.2,69.0,29.90,ENE,69,0.0,0.0,94,0.00,,,0.00,weatherlink.com 1.10,2013-04-13 10:32:00,
2013-04-13 06:47:00,70.3,69.0,29.90,ENE,69,0.0,0.0,94,0.00,,,0.00,weatherlink.com 1.10,2013-04-13 10:47:00,
2013-04-13 07:02:00,70.4,69.0,29.90,ENE,69,0.0,2.0,94,0.00,,,0.00,weatherlink.com 1.10,2013-04-13 11:02:00,
2013-04-13 07:17:00,70.2,68.0,29.92,ENE,69,2.0,2.0,93,0.00,,,0.00,weatherlink.com 1.10,2013-04-13 11:17:00,
2013-04-13 07:32:00,70.7,69.0,29.93,SW,218,7.0,7.0,93,0.00,,,0.00,weatherlink.com 1.10,2013-04-13 11:32:00,
2013-04-13 07:47:00,70.7,69.0,29.93,SW,222,5.0,7.0,93,0.00,,,0.00,weatherlink.com 1.10,2013-04-13 11:47:00,
2013-04-13 08:02:00,71.0,69.0,29.93,SW,218,4.0,5.0,92,0.00,,,0.00,weatherlink.com 1.10,2013-04-13 12:02:00,
2013-04-13 08:17:00,70.8,69.0,29.93,SW,221,4.0,6.0,93,0.00,,,0.00,weatherlink.com 1.10,2013-04-13 12:17:00,
2013-04-13 08:32:00,71.6,69.0,29.94,SW,225,3.0,4.0,91,0.00,,,0.00,weatherlink.com 1.10,2013-04-13 12:32:00,
2013-04-13 08:47:00,72.8,69.0,29.95,SW,215,2.0,4.0,88,0.00,,,0.00,weatherlink.com 1.10,2013-04-13 12:47:00,
2013-04-13 09:02:00,74.2,70.0,29.95,NE,51,3.0,3.0,87,0.00,,,0.00,weatherlink.com 1.10,2013-04-13 13:02:00,
2013-04-13 09:17:00,74.3,70.0,29.96,North,5,7.0,11.0,85,0.00,,,0.00,weatherlink.com 1.10,2013-04-13 13:17:00,
2013-04-13 09:32:00,74.2,68.0,29.96,NNW,334,7.0,9.0,82,0.00,,,0.00,weatherlink.com 1.10,2013-04-13 13:32:00,
2013-04-13 09:47:00,74.1,69.0,29.96,North,5,7.0,11.0,84,0.00,,,0.00,weatherlink.com 1.10,2013-04-13 13:47:00,
2013-04-13 10:02:00,74.6,69.0,29.96,North,360,9.0,10.0,83,0.00,,,0.00,weatherlink.com 1.10,2013-04-13 14:02:00,
2013-04-13 10:17:00,75.4,70.0,29.97,NNE,30,8.0,10.0,82,0.00,,,0.00,weatherlink.com 1.10,2013-04-13 14:17:00,
2013-04-13 10:32:00,76.0,70.0,29.97,NNE,12,8.0,10.0,81,0.00,,,0.00,weatherlink.com 1.10,2013-04-13 14:32:00,
2013-04-13 10:48:00,76.6,70.0,29.98,North,355,8.0,11.0,79,0.00,,,0.00,weatherlink.com 1.10,2013-04-13 14:48:00,
2013-04-13 11:03:00,76.8,70.0,29.97,NNE,15,8.0,11.0,80,0.00,,,0.00,weatherlink.com 1.10,2013-04-13 15:03:00,
2013-04-13 11:18:00,77.2,71.0,29.97,NE,45,9.0,10.0,81,0.00,,,0.00,weatherlink.com 1.10,2013-04-13 15:18:00,
2013-04-13 11:33:00,77.2,70.0,29.97,NNE,28,6.0,10.0,78,0.00,,,0.00,weatherlink.com 1.10,2013-04-13 15:33:00,
2013-04-13 11:48:00,78.1,70.0,29.97,NNE,24,2.0,10.0,76,0.00,,,0.00,weatherlink.com 1.10,2013-04-13 15:48:00,
2013-04-13 12:03:00,78.9,70.0,29.97,NE,42,2.0,6.0,74,0.00,,,0.00,weatherlink.com 1.10,2013-04-13 16:03:00,
2013-04-13 12:18:00,79.8,70.0,29.97,North,355,1.0,5.0,72,0.00,,,0.00,weatherlink.com 1.10,2013-04-13 16:18:00,
2013-04-13 12:33:00,80.5,71.0,29.97,NW,325,0.0,6.0,72,0.00,,,0.00,weatherlink.com 1.10,2013-04-13 16:33:00,
2013-04-13 12:48:00,80.4,71.0,29.97,NE,47,4.0,7.0,72,0.00,,,0.00,weatherlink.com 1.10,2013-04-13 16:48:00,
2013-04-13 13:03:00,81.0,70.0,29.96,NW,316,5.0,7.0,69,0.00,,,0.00,weatherlink.com 1.10,2013-04-13 17:03:00,
2013-04-13 13:18:00,81.3,71.0,29.96,North,10,1.0,6.0,70,0.00,,,0.00,weatherlink.com 1.10,2013-04-13 17:18:00,
2013-04-13 13:48:00,82.3,69.0,29.95,WSW,239,2.0,6.0,65,0.00,,,0.00,weatherlink.com 1.10,2013-04-13 17:48:00,
2013-04-13 14:03:00,83.3,68.0,29.94,WNW,287,0.0,4.0,61,0.00,,,0.00,weatherlink.com 1.10,2013-04-13 18:03:00,
2013-04-13 14:33:00,83.8,68.0,29.93,NNE,16,2.0,7.0,59,0.00,,,0.00,weatherlink.com 1.10,2013-04-13 18:33:00,
2013-04-13 14:48:00,83.8,67.0,29.92,North,360,1.0,7.0,58,0.00,,,0.00,weatherlink.com 1.10,2013-04-13 18:48:00,
2013-04-13 15:03:00,83.8,68.0,29.91,NNE,24,3.0,7.0,60,0.00,,,0.00,weatherlink.com 1.10,2013-04-13 19:03:00,
2013-04-13 15:18:00,83.4,67.0,29.91,NNW,348,3.0,6.0,59,0.00,,,0.00,weatherlink.com 1.10,2013-04-13 19:18:00,
2013-04-13 15:33:00,83.5,68.0,29.91,North,355,3.0,6.0,59,0.00,,,0.00,weatherlink.com 1.10,2013-04-13 19:33:00,
2013-04-13 15:48:00,84.2,68.0,29.90,North,360,4.0,9.0,59,0.00,,,0.00,weatherlink.com 1.10,2013-04-13 19:48:00,
2013-04-13 16:03:00,85.4,67.0,29.90,NNW,338,1.0,4.0,54,0.00,,,0.00,weatherlink.com 1.10,2013-04-13 20:03:00,
2013-04-13 16:18:00,84.8,67.0,29.89,WNW,300,1.0,10.0,55,0.00,,,0.00,weatherlink.com 1.10,2013-04-13 20:18:00,
2013-04-13 16:33:00,84.5,67.0,29.89,NW,323,0.0,4.0,56,0.00,,,0.00,weatherlink.com 1.10,2013-04-13 20:33:00,
2013-04-13 16:48:00,84.2,67.0,29.89,NW,321,4.0,7.0,57,0.00,,,0.00,weatherlink.com 1.10,2013-04-13 20:48:00,
2013-04-13 17:03:00,84.5,68.0,29.89,NW,318,3.0,5.0,58,0.00,,,0.00,weatherlink.com 1.10,2013-04-13 21:03:00,
2013-04-13 17:18:00,84.4,68.0,29.90,NNE,22,3.0,7.0,58,0.00,,,0.00,weatherlink.com 1.10,2013-04-13 21:18:00,
2013-04-13 17:33:00,84.5,68.0,29.90,NNW,337,0.0,3.0,57,0.00,,,0.00,weatherlink.com 1.10,2013-04-13 21:33:00,
2013-04-13 17:48:00,84.2,68.0,29.90,WNW,294,1.0,3.0,58,0.00,,,0.00,weatherlink.com 1.10,2013-04-13 21:48:00,
2013-04-13 18:03:00,84.8,67.0,29.90,SSE,159,0.0,4.0,56,0.00,,,0.00,weatherlink.com 1.10,2013-04-13 22:03:00,
2013-04-13 18:18:00,84.2,67.0,29.90,WSW,257,0.0,3.0,57,0.00,,,0.00,weatherlink.com 1.10,2013-04-13 22:18:00,
2013-04-13 18:33:00,84.0,68.0,29.90,West,267,3.0,3.0,58,0.00,,,0.00,weatherlink.com 1.10,2013-04-13 22:33:00,
2013-04-13 18:48:00,83.2,68.0,29.90,West,263,0.0,3.0,60,0.00,,,0.00,weatherlink.com 1.10,2013-04-13 22:48:00,
2013-04-13 19:03:00,83.6,68.0,29.89,West,263,0.0,2.0,60,0.00,,,0.00,weatherlink.com 1.10,2013-04-13 23:03:00,
2013-04-13 19:18:00,82.8,67.0,29.89,West,263,2.0,2.0,60,0.00,,,0.00,weatherlink.com 1.10,2013-04-13 23:18:00,
2013-04-13 19:33:00,82.3,68.0,29.90,West,263,3.0,3.0,62,0.00,,,0.00,weatherlink.com 1.10,2013-04-13 23:33:00,
2013-04-13 19:48:00,81.9,68.0,29.90,WSW,254,3.0,4.0,63,0.00,,,0.00,weatherlink.com 1.10,2013-04-13 23:48:00,
2013-04-13 20:03:00,80.7,69.0,29.90,West,277,5.0,8.0,68,0.00,,,0.00,weatherlink.com 1.10,2013-04-14 00:03:00,
2013-04-13 20:18:00,79.8,70.0,29.91,WNW,298,6.0,10.0,72,0.00,,,0.00,weatherlink.com 1.10,2013-04-14 00:18:00,
2013-04-13 20:33:00,78.6,70.0,29.91,NW,308,4.0,7.0,74,0.00,,,0.00,weatherlink.com 1.10,2013-04-14 00:33:00,
2013-04-13 20:48:00,77.6,69.0,29.91,NW,319,6.0,7.0,74,0.00,,,0.00,weatherlink.com 1.10,2013-04-14 00:48:00,
2013-04-13 21:03:00,76.8,68.0,29.91,NW,325,5.0,7.0,75,0.00,,,0.00,weatherlink.com 1.10,2013-04-14 01:03:00,
2013-04-13 21:18:00,76.3,67.0,29.92,NNW,337,8.0,9.0,74,0.00,,,0.00,weatherlink.com 1.10,2013-04-14 01:18:00,
2013-04-13 21:33:00,75.8,66.0,29.92,NNW,346,6.0,8.0,72,0.00,,,0.00,weatherlink.com 1.10,2013-04-14 01:33:00,
2013-04-13 21:48:00,75.3,66.0,29.94,NNW,338,6.0,8.0,72,0.00,,,0.00,weatherlink.com 1.10,2013-04-14 01:48:00,
2013-04-13 22:03:00,75.7,68.0,29.97,ENE,73,7.0,9.0,76,0.00,,,0.00,weatherlink.com 1.10,2013-04-14 02:03:00,
2013-04-13 22:18:00,75.3,65.0,29.96,North,355,5.0,6.0,71,0.00,,,0.00,weatherlink.com 1.10,2013-04-14 02:18:00,
2013-04-13 22:33:00,75.6,66.0,29.96,North,5,4.0,7.0,71,0.00,,,0.00,weatherlink.com 1.10,2013-04-14 02:33:00,
2013-04-13 22:48:00,75.5,68.0,29.97,NE,49,6.0,9.0,78,0.00,,,0.00,weatherlink.com 1.10,2013-04-14 02:48:00,
2013-04-13 23:03:00,74.4,69.0,29.97,East,88,13.0,13.0,84,0.00,,,0.00,weatherlink.com 1.10,2013-04-14 03:03:00,
2013-04-13 23:18:00,73.2,67.0,29.97,ESE,107,8.0,11.0,82,0.00,,,0.00,weatherlink.com 1.10,2013-04-14 03:18:00,
2013-04-13 23:33:00,72.4,67.0,29.98,East,92,8.0,11.0,83,0.00,,,0.00,weatherlink.com 1.10,2013-04-14 03:33:00,
2013-04-13 23:48:00,71.5,66.0,29.98,ESE,109,7.0,8.0,83,0.00,,,0.00,weatherlink.com 1.10,2013-04-14 03:48:00,